Pontiac, Michigan
Current Conditions -  °F | °C
As of 12:53 PM on Wednesday 28 Jan 2015 (Local Time) from KPTK Reporting Station
Scattered Clouds Scattered Clouds  
Wind Chill: -3°   Ceiling: Unl
Heat Index: -3°   Visibility: 10mi
Dew Point: -13°   Wind: 3mph
Humidity: 45%   Direction: NA
Pressure: 30.28"   Gusts: NA
Location:  42.64°N, 83.29°W
Report Text: KPTK 281753Z VRB03KT 10SM SCT250 M03/M13 A3028 RMK AO2 SLP271 I6000 T10281133 11022 21144 58011
Loading
Personal Weather Stations






























Interactive Weather Map New forecast layout! Learn more

10-Day Weather Forecast

Advertisements
Track Severe Weather on mobile